createdAt,value
2018-11-21T00:00:38.634Z,1004.48
2018-11-21T00:01:38.603Z,1004.49
2018-11-21T00:02:38.637Z,1004.56
2018-11-21T00:03:38.596Z,1004.56
2018-11-21T00:04:38.571Z,1004.57
2018-11-21T00:05:38.592Z,1004.56
2018-11-21T00:06:38.555Z,1004.58
2018-11-21T00:07:38.543Z,1004.63
2018-11-21T00:08:38.535Z,1004.63
2018-11-21T00:09:38.534Z,1004.67
2018-11-21T00:10:38.569Z,1004.62
2018-11-21T00:11:38.515Z,1004.68
2018-11-21T00:12:38.519Z,1004.63
2018-11-21T00:13:38.500Z,1004.68
2018-11-21T00:14:38.468Z,1004.67
2018-11-21T00:15:38.464Z,1004.65
2018-11-21T00:16:38.464Z,1004.65
2018-11-21T00:17:38.452Z,1004.63
2018-11-21T00:18:38.429Z,1004.66
2018-11-21T00:19:38.418Z,1004.60
2018-11-21T00:20:38.412Z,1004.59
2018-11-21T00:21:38.415Z,1004.57
2018-11-21T00:22:38.384Z,1004.59
2018-11-21T00:23:38.373Z,1004.63
2018-11-21T00:24:38.365Z,1004.68
2018-11-21T00:25:38.401Z,1004.66
2018-11-21T00:26:38.376Z,1004.68
2018-11-21T00:27:38.332Z,1004.68
2018-11-21T00:28:38.348Z,1004.73
2018-11-21T00:29:38.310Z,1004.78
2018-11-21T00:30:38.296Z,1004.76
2018-11-21T00:31:38.285Z,1004.72
2018-11-21T00:32:38.298Z,1004.76
2018-11-21T00:33:38.266Z,1004.71
2018-11-21T00:34:38.283Z,1004.71
2018-11-21T00:35:38.241Z,1004.77
2018-11-21T00:36:38.228Z,1004.74
2018-11-21T00:37:38.246Z,1004.75
2018-11-21T00:38:38.209Z,1004.79
2018-11-21T00:39:38.208Z,1004.82
2018-11-21T00:40:38.189Z,1004.82
2018-11-21T00:41:38.181Z,1004.81
2018-11-21T00:42:38.241Z,1004.75
2018-11-21T00:43:38.152Z,1004.71
2018-11-21T00:44:38.141Z,1004.75
2018-11-21T00:45:38.182Z,1004.79
2018-11-21T00:46:38.124Z,1004.82
2018-11-21T00:47:38.133Z,1004.78
2018-11-21T00:48:38.107Z,1004.78
2018-11-21T00:49:38.131Z,1004.85
2018-11-21T00:50:45.632Z,1004.78
2018-11-21T00:51:38.074Z,1004.77
2018-11-21T00:52:38.094Z,1004.83
2018-11-21T00:53:38.046Z,1004.72
2018-11-21T00:54:38.037Z,1004.68
2018-11-21T00:55:38.039Z,1004.73
2018-11-21T00:56:38.017Z,1004.66
2018-11-21T00:57:38.014Z,1004.66
2018-11-21T00:58:38.018Z,1004.63
2018-11-21T00:59:37.984Z,1004.65
2018-11-21T01:00:37.974Z,1004.66
2018-11-21T01:01:37.998Z,1004.63
2018-11-21T01:02:37.958Z,1004.67
2018-11-21T01:03:37.970Z,1004.70
2018-11-21T01:04:37.975Z,1004.72
2018-11-21T01:05:37.919Z,1004.75
2018-11-21T01:06:37.915Z,1004.80
2018-11-21T01:07:37.898Z,1004.83
2018-11-21T01:08:37.902Z,1004.84
2018-11-21T01:09:37.937Z,1004.89
2018-11-21T01:10:37.887Z,1004.88
2018-11-21T01:11:37.857Z,1004.92
2018-11-21T01:12:37.845Z,1004.93
2018-11-21T01:13:37.859Z,1004.94
2018-11-21T01:14:37.827Z,1004.98
2018-11-21T01:15:37.811Z,1005.00
2018-11-21T01:16:37.803Z,1005.11
2018-11-21T01:17:37.815Z,1005.05
2018-11-21T01:18:37.786Z,1005.11
2018-11-21T01:19:37.798Z,1005.05
2018-11-21T01:20:37.792Z,1005.10
2018-11-21T01:21:37.763Z,1005.13
2018-11-21T01:22:37.753Z,1005.17
2018-11-21T01:23:37.733Z,1005.20
2018-11-21T01:24:37.736Z,1005.27
2018-11-21T01:25:37.708Z,1005.30
2018-11-21T01:26:37.713Z,1005.27
2018-11-21T01:27:37.685Z,1005.30
2018-11-21T01:28:37.688Z,1005.32
2018-11-21T01:29:37.685Z,1005.37
2018-11-21T01:30:37.660Z,1005.29
2018-11-21T01:31:37.649Z,1005.32
2018-11-21T01:32:37.634Z,1005.30
2018-11-21T01:33:37.625Z,1005.31
2018-11-21T01:34:37.622Z,1005.31
2018-11-21T01:35:37.630Z,1005.33
2018-11-21T01:36:37.599Z,1005.32
2018-11-21T01:37:37.587Z,1005.36
2018-11-21T01:38:37.570Z,1005.42
2018-11-21T01:39:37.562Z,1005.43
2018-11-21T01:40:37.602Z,1005.42
2018-11-21T01:41:37.538Z,1005.42
2018-11-21T01:42:37.533Z,1005.37
2018-11-21T01:43:37.522Z,1005.34
2018-11-21T01:44:37.507Z,1005.32
2018-11-21T01:45:37.532Z,1005.36
2018-11-21T01:46:37.491Z,1005.39
2018-11-21T01:47:37.477Z,1005.34
2018-11-21T01:48:37.499Z,1005.36
2018-11-21T01:49:37.461Z,1005.39
2018-11-21T01:50:37.450Z,1005.35
2018-11-21T01:51:37.447Z,1005.41
2018-11-21T01:52:37.418Z,1005.42
2018-11-21T01:53:37.411Z,1005.39
2018-11-21T01:54:37.402Z,1005.39
2018-11-21T01:55:37.405Z,1005.41
2018-11-21T01:56:37.413Z,1005.42
2018-11-21T01:57:37.375Z,1005.43
2018-11-21T01:58:37.360Z,1005.48
2018-11-21T01:59:37.351Z,1005.46
2018-11-21T02:00:37.372Z,1005.44
2018-11-21T02:01:37.353Z,1005.49
2018-11-21T02:02:37.344Z,1005.55
2018-11-21T02:03:37.310Z,1005.53
2018-11-21T02:04:37.307Z,1005.48
2018-11-21T02:05:37.285Z,1005.49
2018-11-21T02:06:37.287Z,1005.50
2018-11-21T02:07:37.298Z,1005.52
2018-11-21T02:08:37.259Z,1005.57
2018-11-21T02:09:37.243Z,1005.59
2018-11-21T02:10:37.235Z,1005.60
2018-11-21T02:11:37.222Z,1005.60
2018-11-21T02:12:37.232Z,1005.57
2018-11-21T02:13:37.235Z,1005.57
2018-11-21T02:14:37.205Z,1005.56
2018-11-21T02:15:37.181Z,1005.62
2018-11-21T02:16:37.182Z,1005.59
2018-11-21T02:17:37.185Z,1005.58
2018-11-21T02:18:37.155Z,1005.60
2018-11-21T02:19:37.168Z,1005.55
2018-11-21T02:20:37.135Z,1005.60
2018-11-21T02:21:37.120Z,1005.64
2018-11-21T02:22:37.151Z,1005.68
2018-11-21T02:23:37.120Z,1005.66
2018-11-21T02:24:37.095Z,1005.65
2018-11-21T02:25:37.082Z,1005.65
2018-11-21T02:26:37.071Z,1005.61
2018-11-21T02:27:37.087Z,1005.60
2018-11-21T02:28:37.077Z,1005.54
2018-11-21T02:29:37.035Z,1005.62
2018-11-21T02:30:37.035Z,1005.65
2018-11-21T02:31:37.016Z,1005.59
2018-11-21T02:32:37.003Z,1005.64
2018-11-21T02:33:37.008Z,1005.73
2018-11-21T02:34:37.015Z,1005.67
2018-11-21T02:35:36.978Z,1005.64
2018-11-21T02:36:36.975Z,1005.72
2018-11-21T02:37:36.950Z,1005.66
2018-11-21T02:38:36.941Z,1005.71
2018-11-21T02:39:36.958Z,1005.72
2018-11-21T02:40:36.919Z,1005.81
2018-11-21T02:41:36.920Z,1005.86
2018-11-21T02:42:36.895Z,1005.79
2018-11-21T02:43:36.885Z,1005.85
2018-11-21T02:44:36.911Z,1005.82
2018-11-21T02:45:36.874Z,1005.82
2018-11-21T02:46:36.859Z,1005.85
2018-11-21T02:47:36.853Z,1005.85
2018-11-21T02:48:36.831Z,1005.84
2018-11-21T02:49:36.829Z,1005.84
2018-11-21T02:50:36.831Z,1005.88
2018-11-21T02:51:36.804Z,1005.85
2018-11-21T02:52:36.787Z,1005.89
2018-11-21T02:53:36.782Z,1006.01
2018-11-21T02:54:36.794Z,1005.94
2018-11-21T02:55:36.789Z,1006.00
2018-11-21T02:56:36.748Z,1006.04
2018-11-21T02:57:36.748Z,1006.07
2018-11-21T02:58:36.760Z,1006.08
2018-11-21T02:59:36.720Z,1006.09
2018-11-21T03:00:36.740Z,1006.09
2018-11-21T03:11:04.957Z,1005.82
2018-11-21T03:12:04.972Z,1005.91
2018-11-21T03:13:04.934Z,1005.93
2018-11-21T03:14:04.927Z,1006.00
2018-11-21T03:15:04.919Z,1006.12
2018-11-21T03:16:04.908Z,1006.13
2018-11-21T03:17:04.897Z,1006.13
2018-11-21T03:18:04.910Z,1006.19
2018-11-21T03:19:04.874Z,1006.23
2018-11-21T03:20:04.862Z,1006.22
2018-11-21T03:21:04.850Z,1006.15
2018-11-21T03:22:04.866Z,1006.19
2018-11-21T03:23:04.855Z,1006.24
2018-11-21T03:24:04.829Z,1006.24
2018-11-21T03:25:04.804Z,1006.21
2018-11-21T03:26:04.792Z,1006.32
2018-11-21T03:27:04.779Z,1006.34
2018-11-21T03:28:04.791Z,1006.33
2018-11-21T03:29:04.760Z,1006.37
2018-11-21T03:30:04.749Z,1006.42
2018-11-21T03:31:04.760Z,1006.40
2018-11-21T03:32:04.748Z,1006.41
2018-11-21T03:33:04.744Z,1006.47
2018-11-21T03:34:04.726Z,1006.48
2018-11-21T03:35:04.695Z,1006.50
2018-11-21T03:36:04.691Z,1006.54
2018-11-21T03:37:04.684Z,1006.49
2018-11-21T03:38:04.665Z,1006.46
2018-11-21T03:39:04.682Z,1006.50
2018-11-21T03:40:04.644Z,1006.51
2018-11-21T03:41:04.632Z,1006.52
2018-11-21T03:42:04.629Z,1006.56
2018-11-21T03:43:04.608Z,1006.54
2018-11-21T03:44:04.623Z,1006.53
2018-11-21T03:45:04.589Z,1006.55
2018-11-21T03:46:04.594Z,1006.55
2018-11-21T03:47:04.564Z,1006.63
2018-11-21T03:48:04.557Z,1006.64
2018-11-21T03:49:04.589Z,1006.69
2018-11-21T03:50:04.549Z,1006.73
2018-11-21T03:51:04.536Z,1006.72
2018-11-21T03:52:04.533Z,1006.74
2018-11-21T03:53:04.503Z,1006.69
2018-11-21T03:54:04.490Z,1006.71
2018-11-21T03:55:04.501Z,1006.75
2018-11-21T03:56:04.470Z,1006.79
2018-11-21T03:57:04.464Z,1006.78
2018-11-21T03:58:04.457Z,1006.83
2018-11-21T03:59:04.453Z,1006.71
2018-11-21T04:00:04.441Z,1006.69
2018-11-21T04:01:04.422Z,1006.67
2018-11-21T04:02:04.426Z,1006.65
2018-11-21T04:03:04.445Z,1006.63
2018-11-21T04:04:04.383Z,1006.58
2018-11-21T04:05:04.410Z,1006.59
2018-11-21T04:06:04.372Z,1006.57
2018-11-21T04:07:04.365Z,1006.56
2018-11-21T04:08:04.353Z,1006.57
2018-11-21T04:09:04.332Z,1006.68
2018-11-21T04:10:04.328Z,1006.64
2018-11-21T04:11:04.331Z,1006.61
2018-11-21T04:12:04.297Z,1006.61
2018-11-21T04:13:04.290Z,1006.64
2018-11-21T04:14:04.332Z,1006.64
2018-11-21T04:15:04.260Z,1006.63
2018-11-21T04:16:04.272Z,1006.67
2018-11-21T04:17:04.250Z,1006.60
2018-11-21T04:18:04.249Z,1006.61
2018-11-21T04:19:04.217Z,1006.62
2018-11-21T04:20:04.210Z,1006.66
2018-11-21T04:21:04.204Z,1006.67
2018-11-21T04:22:04.209Z,1006.70
2018-11-21T04:23:04.177Z,1006.83
2018-11-21T04:24:04.167Z,1006.86
2018-11-21T04:25:04.153Z,1006.89
2018-11-21T04:26:04.165Z,1006.83
2018-11-21T04:27:04.160Z,1006.90
2018-11-21T04:28:04.120Z,1006.89
2018-11-21T04:29:04.113Z,1006.91
2018-11-21T04:30:04.131Z,1006.95
2018-11-21T04:31:04.113Z,1006.90
2018-11-21T04:32:04.108Z,1006.89
2018-11-21T04:33:04.066Z,1006.92
2018-11-21T04:34:04.071Z,1006.95
2018-11-21T04:35:04.047Z,1006.97
2018-11-21T04:36:04.047Z,1007.01
2018-11-21T04:37:04.042Z,1007.03
2018-11-21T04:38:04.015Z,1006.99
2018-11-21T04:39:04.006Z,1007.08
2018-11-21T04:40:03.994Z,1007.09
2018-11-21T04:41:03.984Z,1007.05
2018-11-21T04:42:04.009Z,1007.02
2018-11-21T04:43:03.985Z,1007.05
2018-11-21T04:44:03.957Z,1007.03
2018-11-21T04:45:03.939Z,1007.08
2018-11-21T04:46:03.953Z,1007.13
2018-11-21T04:47:03.926Z,1007.14
2018-11-21T04:48:03.936Z,1007.10
2018-11-21T04:49:03.896Z,1007.10
2018-11-21T04:50:03.904Z,1007.05
2018-11-21T04:51:03.874Z,1007.00
2018-11-21T04:52:03.868Z,1007.05
2018-11-21T04:53:03.875Z,1007.06
2018-11-21T04:54:03.844Z,1007.06
2018-11-21T04:55:03.828Z,1007.05
2018-11-21T04:56:03.826Z,1007.07
2018-11-21T04:57:03.808Z,1007.08
2018-11-21T04:58:03.831Z,1007.18
2018-11-21T04:59:03.791Z,1007.20
2018-11-21T05:00:03.798Z,1007.15
2018-11-21T05:01:03.790Z,1007.21
2018-11-21T05:02:03.756Z,1007.25
2018-11-21T05:03:03.744Z,1007.29
2018-11-21T05:04:03.758Z,1007.30
2018-11-21T05:05:03.752Z,1007.27
2018-11-21T05:06:03.731Z,1007.28
2018-11-21T05:07:03.707Z,1007.27
2018-11-21T05:08:03.693Z,1007.27
2018-11-21T05:09:03.705Z,1007.26
2018-11-21T05:10:03.672Z,1007.32
2018-11-21T05:11:03.668Z,1007.31
2018-11-21T05:12:03.654Z,1007.36
2018-11-21T05:13:03.642Z,1007.41
2018-11-21T05:14:03.661Z,1007.38
2018-11-21T05:15:03.640Z,1007.41
2018-11-21T05:16:03.607Z,1007.38
2018-11-21T05:17:03.613Z,1007.34
2018-11-21T05:18:03.630Z,1007.32
2018-11-21T05:19:03.581Z,1007.42
2018-11-21T05:20:03.584Z,1007.40
2018-11-21T05:21:03.552Z,1007.40
2018-11-21T05:22:03.539Z,1007.39
2018-11-21T05:23:03.539Z,1007.36
2018-11-21T05:24:03.517Z,1007.38
2018-11-21T05:25:03.525Z,1007.32
2018-11-21T05:26:03.510Z,1007.26
2018-11-21T05:27:03.539Z,1007.31
2018-11-21T05:28:03.490Z,1007.36
2018-11-21T05:29:03.472Z,1007.38
2018-11-21T05:30:03.503Z,1007.40
2018-11-21T05:31:03.442Z,1007.39
2018-11-21T05:32:03.432Z,1007.38
2018-11-21T05:33:03.433Z,1007.39
2018-11-21T05:34:03.417Z,1007.39
2018-11-21T05:35:03.436Z,1007.43
2018-11-21T05:36:03.427Z,1007.39
2018-11-21T05:37:03.381Z,1007.49
2018-11-21T05:38:03.396Z,1007.58
2018-11-21T05:39:03.363Z,1007.62
2018-11-21T05:40:03.371Z,1007.64
2018-11-21T05:41:03.387Z,1007.70
2018-11-21T05:42:03.331Z,1007.74
2018-11-21T05:43:03.315Z,1007.79
2018-11-21T05:44:03.306Z,1007.73
2018-11-21T05:45:03.316Z,1007.69
2018-11-21T05:46:03.294Z,1007.70
2018-11-21T05:47:03.273Z,1007.69
2018-11-21T05:48:03.266Z,1007.68
2018-11-21T05:49:03.257Z,1007.78
2018-11-21T05:50:03.262Z,1007.80
2018-11-21T05:51:03.230Z,1007.80
2018-11-21T05:52:03.230Z,1007.81
2018-11-21T05:53:03.213Z,1007.87
2018-11-21T05:54:03.199Z,1007.88
2018-11-21T05:55:03.256Z,1007.88
2018-11-21T05:56:03.179Z,1007.89
2018-11-21T05:57:03.176Z,1007.95
2018-11-21T05:58:03.182Z,1007.96
2018-11-21T05:59:03.146Z,1007.98
2018-11-21T06:00:03.139Z,1008.00
2018-11-21T06:01:03.175Z,1007.96
2018-11-21T06:02:03.112Z,1008.03
2018-11-21T06:03:03.131Z,1008.01
2018-11-21T06:04:03.097Z,1008.03
2018-11-21T06:05:03.094Z,1007.98
2018-11-21T06:06:03.100Z,1007.96
2018-11-21T06:07:03.057Z,1007.94
2018-11-21T06:08:03.050Z,1007.98
2018-11-21T06:09:03.041Z,1008.07
2018-11-21T06:10:03.035Z,1008.21
2018-11-21T06:11:03.033Z,1008.15
2018-11-21T06:12:04.348Z,1008.12
2018-11-21T06:13:03.005Z,1008.09
2018-11-21T06:14:03.031Z,1008.09
2018-11-21T06:15:02.979Z,1008.13
2018-11-21T06:16:03.025Z,1008.17
2018-11-21T06:17:02.953Z,1008.18
2018-11-21T06:18:02.946Z,1008.20
2018-11-21T06:19:02.936Z,1008.21
2018-11-21T06:20:02.926Z,1008.19
2018-11-21T06:21:02.946Z,1008.12
2018-11-21T06:22:02.898Z,1008.16
2018-11-21T06:23:02.891Z,1008.18
2018-11-21T06:24:02.941Z,1008.22
2018-11-21T06:25:02.925Z,1008.23
2018-11-21T06:26:02.998Z,1008.23
2018-11-21T06:27:02.900Z,1008.29
2018-11-21T06:28:02.844Z,1008.30
2018-11-21T06:29:02.879Z,1008.26
2018-11-21T06:30:02.819Z,1008.29
2018-11-21T06:31:02.801Z,1008.26
2018-11-21T06:32:02.850Z,1008.32
2018-11-21T06:33:02.786Z,1008.37
2018-11-21T06:34:02.772Z,1008.41
2018-11-21T06:35:02.761Z,1008.43
2018-11-21T06:36:02.750Z,1008.42
2018-11-21T06:37:02.759Z,1008.38
2018-11-21T06:38:02.742Z,1008.39
2018-11-21T06:39:02.807Z,1008.39
2018-11-21T06:40:02.727Z,1008.40
2018-11-21T06:41:02.725Z,1008.39
2018-11-21T06:42:02.709Z,1008.35
2018-11-21T06:43:02.687Z,1008.41
2018-11-21T06:44:02.690Z,1008.43
2018-11-21T06:45:03.518Z,1008.42
2018-11-21T06:46:02.707Z,1008.40
2018-11-21T06:47:02.681Z,1008.44
2018-11-21T06:48:02.677Z,1008.43
2018-11-21T06:49:02.646Z,1008.39
2018-11-21T06:50:02.617Z,1008.42
2018-11-21T06:51:02.587Z,1008.46
2018-11-21T06:52:02.583Z,1008.45
2018-11-21T06:53:02.594Z,1008.48
2018-11-21T06:54:02.567Z,1008.52
2018-11-21T06:55:02.592Z,1008.54
2018-11-21T06:56:02.557Z,1008.58
2018-11-21T06:57:02.555Z,1008.68
2018-11-21T06:59:18.744Z,1008.76
2018-11-21T07:00:18.674Z,1008.73
2018-11-21T07:01:18.685Z,1008.73
2018-11-21T07:02:18.669Z,1008.73
2018-11-21T07:03:18.667Z,1008.78
2018-11-21T07:04:18.693Z,1008.71
2018-11-21T07:05:18.660Z,1008.77
2018-11-21T07:06:18.610Z,1008.73
2018-11-21T07:07:18.614Z,1008.78
2018-11-21T07:08:18.588Z,1008.74
2018-11-21T07:09:18.577Z,1008.80
2018-11-21T07:10:18.564Z,1008.83
2018-11-21T07:11:18.551Z,1008.81
2018-11-21T07:12:18.545Z,1008.82
2018-11-21T07:13:18.564Z,1008.83
2018-11-21T07:16:55.744Z,1008.90
2018-11-21T07:17:55.667Z,1008.89
2018-11-21T07:18:55.660Z,1008.94
2018-11-21T07:19:55.644Z,1008.90
2018-11-21T07:20:55.638Z,1008.89
2018-11-21T07:21:55.610Z,1008.88
2018-11-21T07:22:55.632Z,1008.88
2018-11-21T07:23:55.583Z,1008.91
2018-11-21T07:24:55.563Z,1009.02
2018-11-21T07:27:12.556Z,1009.00
2018-11-21T07:29:21.741Z,1008.97
2018-11-21T07:31:30.944Z,1009.02
2018-11-21T07:32:40.840Z,1008.94
2018-11-21T07:33:46.342Z,1008.93
2018-11-21T07:34:30.913Z,1008.93
2018-11-21T07:35:30.894Z,1008.91
2018-11-21T07:36:30.910Z,1008.96
2018-11-21T07:37:38.477Z,1009.00
2018-11-21T07:38:30.920Z,1009.05
2018-11-21T07:39:30.875Z,1009.11
2018-11-21T07:40:30.920Z,1009.08
2018-11-21T07:41:30.864Z,1009.07
2018-11-21T07:43:48.343Z,1009.15
2018-11-21T07:45:57.639Z,1009.17
2018-11-21T07:46:57.528Z,1009.13
2018-11-21T07:47:57.536Z,1009.15
2018-11-21T07:49:07.277Z,1009.19
2018-11-21T07:50:06.121Z,1009.15
2018-11-21T07:51:05.031Z,1009.17
2018-11-21T07:52:05.106Z,1009.21
2018-11-21T07:53:05.020Z,1009.17
2018-11-21T07:54:06.416Z,1009.19
2018-11-21T07:55:06.078Z,1009.21
2018-11-21T07:56:04.998Z,1009.19
2018-11-21T07:57:05.002Z,1009.29
2018-11-21T07:58:05.037Z,1009.30
2018-11-21T07:59:05.981Z,1009.28
2018-11-21T08:00:07.016Z,1009.27
2018-11-21T08:01:04.975Z,1009.30
2018-11-21T08:02:04.996Z,1009.28
2018-11-21T08:03:04.930Z,1009.27
2018-11-21T08:04:04.918Z,1009.34
2018-11-21T08:04:57.374Z,1009.31
2018-11-21T08:05:57.386Z,1009.34
2018-11-21T08:06:57.315Z,1009.36
2018-11-21T08:07:57.346Z,1009.36
2018-11-21T08:08:57.300Z,1009.40
2018-11-21T08:09:57.437Z,1009.44
2018-11-21T08:10:57.265Z,1009.45
2018-11-21T08:11:57.260Z,1009.40
2018-11-21T08:12:57.248Z,1009.46
2018-11-21T08:13:57.242Z,1009.44
2018-11-21T08:14:57.290Z,1009.52
2018-11-21T08:15:57.208Z,1009.57
2018-11-21T08:16:57.198Z,1009.57
2018-11-21T08:17:57.186Z,1009.53
2018-11-21T08:18:57.198Z,1009.55
2018-11-21T08:19:57.191Z,1009.55
2018-11-21T08:20:57.174Z,1009.61
2018-11-21T08:21:57.145Z,1009.64
2018-11-21T08:22:57.146Z,1009.64
2018-11-21T08:23:57.130Z,1009.61
2018-11-21T08:24:57.164Z,1009.54
2018-11-21T08:25:57.104Z,1009.58
2018-11-21T08:26:57.098Z,1009.59
2018-11-21T08:27:57.081Z,1009.64
2018-11-21T08:28:57.072Z,1009.59
2018-11-21T08:29:57.098Z,1009.59
2018-11-21T08:30:57.075Z,1009.62
2018-11-21T08:31:57.171Z,1009.64
2018-11-21T08:32:57.026Z,1009.66
2018-11-21T08:33:57.016Z,1009.72
2018-11-21T08:34:57.021Z,1009.73
2018-11-21T08:35:57.018Z,1009.75
2018-11-21T08:36:56.996Z,1009.80
2018-11-21T08:37:56.973Z,1009.85
2018-11-21T08:38:56.962Z,1009.85
2018-11-21T08:39:56.984Z,1009.90
2018-11-21T08:40:56.942Z,1009.88
2018-11-21T08:41:56.946Z,1009.90
2018-11-21T08:42:56.920Z,1009.89
2018-11-21T08:44:56.962Z,1009.93
2018-11-21T08:45:57.026Z,1009.96
2018-11-21T08:46:56.898Z,1009.95
2018-11-21T08:47:56.874Z,1009.94
2018-11-21T08:48:56.863Z,1009.98
2018-11-21T08:51:58.468Z,1010.06
2018-11-21T08:52:58.445Z,1010.08
2018-11-21T08:53:58.396Z,1010.09
2018-11-21T08:54:58.469Z,1010.10
2018-11-21T08:55:58.397Z,1010.17
2018-11-21T08:56:58.351Z,1010.16
2018-11-21T08:57:58.373Z,1010.13
2018-11-21T08:59:05.892Z,1010.12
2018-11-21T08:59:58.322Z,1010.10
2018-11-21T09:00:58.328Z,1010.13
2018-11-21T09:01:58.332Z,1010.16
2018-11-21T09:02:58.298Z,1010.17
2018-11-21T09:03:58.338Z,1010.16
2018-11-21T09:04:58.266Z,1010.14
2018-11-21T09:05:58.315Z,1010.20
2018-11-21T09:06:58.252Z,1010.17
2018-11-21T09:07:58.237Z,1010.20
2018-11-21T09:08:58.243Z,1010.19
2018-11-21T09:09:58.232Z,1010.16
2018-11-21T09:10:58.234Z,1010.14
2018-11-21T09:11:58.255Z,1010.12
2018-11-21T09:12:58.186Z,1010.15
2018-11-21T09:13:58.184Z,1010.20
2018-11-21T09:14:58.214Z,1010.20
2018-11-21T09:15:58.153Z,1010.20
2018-11-21T09:16:58.170Z,1010.18
2018-11-21T09:17:58.190Z,1010.19
2018-11-21T09:19:07.590Z,1010.20
2018-11-21T09:19:58.102Z,1010.24
2018-11-21T09:21:07.831Z,1010.29
2018-11-21T09:23:15.927Z,1010.40
2018-11-21T09:25:27.434Z,1010.46
2018-11-21T09:26:38.445Z,1010.43
2018-11-21T09:27:34.980Z,1010.41
2018-11-21T09:28:34.957Z,1010.42
2018-11-21T09:29:35.572Z,1010.50
2018-11-21T09:30:35.975Z,1010.55
2018-11-21T09:32:45.739Z,1010.53
2018-11-21T09:34:56.016Z,1010.57
2018-11-21T09:35:56.000Z,1010.58
2018-11-21T09:36:55.985Z,1010.59
2018-11-21T09:37:55.998Z,1010.56
2018-11-21T09:38:55.984Z,1010.59
2018-11-21T09:39:56.012Z,1010.57
2018-11-21T09:40:55.943Z,1010.59
2018-11-21T09:42:03.525Z,1010.59
2018-11-21T09:43:06.302Z,1010.61
2018-11-21T09:44:05.325Z,1010.61
2018-11-21T09:44:55.917Z,1010.60
2018-11-21T09:45:55.916Z,1010.58
2018-11-21T09:46:55.883Z,1010.62
2018-11-21T09:47:55.894Z,1010.62
2018-11-21T09:48:57.587Z,1010.62
2018-11-21T09:49:55.895Z,1010.66
2018-11-21T09:50:55.836Z,1010.66
2018-11-21T09:51:55.878Z,1010.65
2018-11-21T09:52:55.813Z,1010.67
2018-11-21T09:54:11.910Z,1010.70
2018-11-21T09:54:55.796Z,1010.68
2018-11-21T09:55:55.793Z,1010.71
2018-11-21T09:56:56.135Z,1010.80
2018-11-21T09:57:55.797Z,1010.77
2018-11-21T09:59:05.306Z,1010.77
2018-11-21T09:59:55.736Z,1010.78
2018-11-21T10:00:56.264Z,1010.83
2018-11-21T10:01:55.756Z,1010.83
2018-11-21T10:02:55.710Z,1010.91
2018-11-21T10:03:58.861Z,1010.92
2018-11-21T10:04:55.687Z,1010.88
2018-11-21T10:05:55.674Z,1010.91
2018-11-21T10:06:55.670Z,1010.97
2018-11-21T10:08:03.251Z,1010.90
2018-11-21T10:08:55.732Z,1010.91
2018-11-21T10:09:55.678Z,1010.92
2018-11-21T10:10:55.634Z,1010.93
2018-11-21T10:11:55.618Z,1010.91
2018-11-21T10:12:55.604Z,1010.96
2018-11-21T10:13:55.611Z,1010.94
2018-11-21T10:14:55.576Z,1010.93
2018-11-21T10:15:56.609Z,1010.90
2018-11-21T10:16:55.591Z,1010.88
2018-11-21T10:17:55.563Z,1010.85
2018-11-21T10:18:55.557Z,1010.90
2018-11-21T10:19:55.525Z,1010.82
2018-11-21T10:20:55.561Z,1010.77
2018-11-21T10:21:55.548Z,1010.75
2018-11-21T10:22:55.496Z,1010.82
2018-11-21T10:23:55.494Z,1010.79
2018-11-21T10:24:55.526Z,1010.75
2018-11-21T10:25:55.473Z,1010.76
2018-11-21T10:26:55.484Z,1010.76
2018-11-21T10:27:55.443Z,1010.74
2018-11-21T10:28:55.470Z,1010.76
2018-11-21T10:29:55.457Z,1010.75
2018-11-21T10:30:55.406Z,1010.75
2018-11-21T10:31:55.396Z,1010.76
2018-11-21T10:32:55.385Z,1010.75
2018-11-21T10:33:55.392Z,1010.78
2018-11-21T10:34:55.385Z,1010.75
2018-11-21T10:35:55.355Z,1010.75
2018-11-21T10:36:55.348Z,1010.79
2018-11-21T10:37:55.367Z,1010.76
2018-11-21T10:38:55.327Z,1010.69
2018-11-21T10:39:55.344Z,1010.69
2018-11-21T10:40:55.333Z,1010.65
2018-11-21T10:41:55.294Z,1010.68
2018-11-21T10:42:55.282Z,1010.64
2018-11-21T10:43:55.281Z,1010.65
2018-11-21T10:44:55.269Z,1010.68
2018-11-21T10:45:55.326Z,1010.69
2018-11-21T10:46:55.247Z,1010.72
2018-11-21T10:47:55.289Z,1010.69
2018-11-21T10:48:55.215Z,1010.74
2018-11-21T10:49:55.215Z,1010.79
2018-11-21T10:50:55.230Z,1010.76
2018-11-21T10:51:55.186Z,1010.80
2018-11-21T10:52:55.185Z,1010.83
2018-11-21T10:53:55.164Z,1010.82
2018-11-21T10:55:02.762Z,1010.84
2018-11-21T10:55:55.202Z,1010.83
2018-11-21T10:56:55.254Z,1010.81
2018-11-21T10:57:55.126Z,1010.78
2018-11-21T10:58:55.181Z,1010.81
2018-11-21T10:59:55.112Z,1010.81
2018-11-21T11:00:55.178Z,1010.77
2018-11-21T11:01:55.109Z,1010.84
2018-11-21T11:02:55.071Z,1010.85
2018-11-21T11:03:55.105Z,1010.89
2018-11-21T11:04:55.052Z,1010.86
2018-11-21T11:05:55.040Z,1010.89
2018-11-21T11:06:55.059Z,1010.98
2018-11-21T11:07:55.020Z,1010.98
2018-11-21T11:08:55.012Z,1010.99
2018-11-21T11:09:55.002Z,1011.00
2018-11-21T11:10:54.987Z,1010.97
2018-11-21T11:11:55.014Z,1010.98
2018-11-21T11:12:54.964Z,1010.97
2018-11-21T11:13:54.958Z,1010.94
2018-11-21T11:14:54.941Z,1010.94
2018-11-21T11:15:54.930Z,1010.98
2018-11-21T11:16:54.943Z,1010.94
2018-11-21T11:17:59.241Z,1010.96
2018-11-21T11:18:54.909Z,1010.98
2018-11-21T11:19:54.897Z,1010.90
2018-11-21T11:20:54.906Z,1010.94
2018-11-21T11:21:54.871Z,1010.95
2018-11-21T11:22:54.878Z,1011.00
2018-11-21T11:24:02.469Z,1010.99
2018-11-21T11:24:54.905Z,1011.05
2018-11-21T11:25:54.875Z,1011.04
2018-11-21T11:26:54.855Z,1011.04
2018-11-21T11:27:54.935Z,1010.97
2018-11-21T11:28:54.858Z,1010.98
2018-11-21T11:29:54.811Z,1011.02
2018-11-21T11:30:54.774Z,1011.10
2018-11-21T11:31:54.782Z,1011.01
2018-11-21T11:32:54.758Z,1011.02
2018-11-21T11:33:54.763Z,1011.04
2018-11-21T11:34:54.732Z,1011.08
2018-11-21T11:35:54.721Z,1011.15
2018-11-21T11:36:54.711Z,1011.07
2018-11-21T11:37:54.714Z,1011.11
2018-11-21T11:38:54.724Z,1011.05
2018-11-21T11:39:54.677Z,1011.08
2018-11-21T11:40:54.672Z,1011.06
2018-11-21T11:41:54.656Z,1011.07
2018-11-21T11:42:54.656Z,1011.08
2018-11-21T11:43:54.668Z,1011.10
2018-11-21T11:44:54.627Z,1011.04
2018-11-21T11:45:54.613Z,1011.09
2018-11-21T11:46:54.605Z,1011.13
2018-11-21T11:47:54.599Z,1011.12
2018-11-21T11:48:54.652Z,1011.20
2018-11-21T11:49:54.590Z,1011.19
2018-11-21T11:50:54.566Z,1011.18
2018-11-21T11:51:54.553Z,1011.15
2018-11-21T11:53:03.175Z,1011.12
2018-11-21T11:53:54.539Z,1011.04
2018-11-21T11:54:54.541Z,1011.06
2018-11-21T11:55:54.548Z,1011.00
2018-11-21T11:56:54.503Z,1011.01
2018-11-21T11:57:54.490Z,1011.10
2018-11-21T11:58:54.490Z,1011.12
2018-11-21T11:59:54.495Z,1011.11
2018-11-21T12:00:54.472Z,1011.09
2018-11-21T12:01:54.444Z,1011.10
2018-11-21T12:02:54.438Z,1011.07
2018-11-21T12:03:57.821Z,1011.07
2018-11-21T12:04:54.414Z,1011.05
2018-11-21T12:05:54.434Z,1011.09
2018-11-21T12:06:54.392Z,1011.06
2018-11-21T12:07:54.386Z,1011.04
2018-11-21T12:08:54.380Z,1011.03
2018-11-21T12:09:54.360Z,1011.07
2018-11-21T12:10:54.380Z,1011.09
2018-11-21T12:11:54.403Z,1011.09
2018-11-21T12:12:54.343Z,1011.08
2018-11-21T12:13:54.319Z,1011.08
2018-11-21T12:14:54.305Z,1011.06
2018-11-21T12:15:54.295Z,1011.06
2018-11-21T12:16:54.308Z,1011.04
2018-11-21T12:17:54.305Z,1011.02
2018-11-21T12:18:54.265Z,1011.04
2018-11-21T12:19:54.291Z,1011.08
2018-11-21T12:20:54.262Z,1011.07
2018-11-21T12:21:54.261Z,1011.07
2018-11-21T12:22:54.237Z,1011.10
2018-11-21T12:23:54.235Z,1011.07
2018-11-21T12:24:54.200Z,1011.11
2018-11-21T12:25:54.198Z,1011.18
2018-11-21T12:26:54.196Z,1011.17
2018-11-21T12:27:54.184Z,1011.17
2018-11-21T12:28:54.154Z,1011.23
2018-11-21T12:29:54.147Z,1011.25
2018-11-21T12:30:54.173Z,1011.23
2018-11-21T12:31:54.174Z,1011.17
2018-11-21T12:32:54.145Z,1011.16